Time;durP1;ratioP1;P1;durP2;ratioP2;P2;SDS_P1;SDS_P2;PMS_P1;PMS_P2;Temp;Humidity;BMP_temperature;BMP_pressure;BME280_temperature;BME280_humidity;BME280_pressure;Samples;Min_cycle;Max_cycle;Signal;HPM_P1;HPM_P2
2023/05/31 00:01:13;;;;;;;7.63;3.70;;;;;;;15.88;63.86;102815.16;5098498;28;20467;-81
2023/05/31 00:03:43;;;;;;;6.05;3.55;;;;;;;16.10;63.49;102825.28;5107171;28;20031;-82
2023/05/31 00:06:11;;;;;;;6.03;3.67;;;;;;;16.04;63.71;102821.66;5105098;28;20032;-81
2023/05/31 00:08:38;;;;;;;6.75;3.60;;;;;;;15.89;64.04;102826.56;5092806;28;20039;-80
2023/05/31 00:11:07;;;;;;;5.47;3.83;;;;;;;16.17;63.17;102819.28;5094839;28;20028;-80
2023/05/31 00:13:41;;;;;;;5.35;3.42;;;;;;;16.03;63.73;102818.13;5092999;28;20084;-80
2023/05/31 00:16:06;;;;;;;;;;;;;;;16.02;63.65;102820.72;5093214;28;20032;-79
2023/05/31 00:18:32;;;;;;;7.60;3.70;;;;;;;16.25;62.74;102814.19;5096781;28;20377;-79
2023/05/31 00:20:57;;;;;;;4.95;3.38;;;;;;;16.13;62.89;102827.09;5097353;28;20036;-80
2023/05/31 00:23:22;;;;;;;5.20;3.53;;;;;;;16.20;62.84;102824.66;5096286;28;20123;-80
2023/05/31 00:25:48;;;;;;;6.38;3.42;;;;;;;15.83;64.74;102822.06;5096668;28;20055;-82
2023/05/31 00:28:14;;;;;;;5.18;3.47;;;;;;;16.11;63.78;102821.78;5095301;28;20043;-80
2023/05/31 00:30:42;;;;;;;7.07;3.80;;;;;;;15.92;64.40;102819.63;5095389;28;20036;-81
2023/05/31 00:33:08;;;;;;;5.57;3.65;;;;;;;16.02;64.00;102813.72;5097471;28;20111;-80
2023/05/31 00:35:33;;;;;;;5.93;3.53;;;;;;;16.16;63.66;102820.16;5103457;28;20032;-82
2023/05/31 00:38:01;;;;;;;5.65;3.75;;;;;;;16.06;63.83;102817.28;5099127;28;20104;-81
2023/05/31 00:40:27;;;;;;;5.35;3.53;;;;;;;16.15;63.71;102806.97;5099251;28;20036;-80
2023/05/31 00:42:52;;;;;;;5.63;3.38;;;;;;;16.13;63.46;102814.84;5100411;28;20043;-79
2023/05/31 00:45:17;;;;;;;7.30;3.65;;;;;;;15.89;64.61;102818.66;5098654;28;20059;-79
2023/05/31 00:47:43;;;;;;;5.78;3.85;;;;;;;15.94;64.29;102820.53;5098934;28;20419;-81
2023/05/31 00:50:11;;;;;;;5.40;3.60;;;;;;;15.91;63.91;102817.88;5094500;28;20039;-79
2023/05/31 00:52:40;;;;;;;6.68;4.00;;;;;;;16.05;63.83;102815.50;5092046;28;20423;-81
2023/05/31 00:55:09;;;;;;;6.47;3.90;;;;;;;16.03;63.57;102812.88;5093277;28;20036;-81
2023/05/31 00:57:34;;;;;;;6.93;4.07;;;;;;;16.10;63.22;102819.16;5093563;28;20039;-80
2023/05/31 00:59:59;;;;;;;6.60;4.15;;;;;;;15.82;64.50;102815.00;5094096;28;20040;-81
2023/05/31 01:02:32;;;;;;;7.85;4.10;;;;;;;15.95;63.82;102824.06;5098287;28;20622;-80
2023/05/31 01:04:59;;;;;;;6.97;4.25;;;;;;;15.81;64.36;102821.13;5103749;28;20052;-79
2023/05/31 01:07:30;;;;;;;6.82;4.00;;;;;;;15.89;64.09;102818.66;5107516;28;20053;-81
2023/05/31 01:10:00;;;;;;;7.65;4.22;;;;;;;15.62;65.20;102814.53;5106476;28;20032;-80
2023/05/31 01:12:37;;;;;;;7.57;4.32;;;;;;;15.86;64.00;102816.00;5108278;28;20028;-81
2023/05/31 01:15:47;;;;;;;6.43;3.90;;;;;;;15.93;63.82;102815.25;5109957;28;20032;-81
2023/05/31 01:18:26;;;;;;;6.32;4.15;;;;;;;15.92;63.78;102813.50;5079056;28;20186;-80
2023/05/31 01:20:57;;;;;;;6.20;4.20;;;;;;;15.82;64.15;102807.13;5105776;28;20047;-79
2023/05/31 01:23:55;;;;;;;7.20;4.30;;;;;;;15.61;64.58;102812.78;5095494;28;20043;-81
2023/05/31 01:26:49;;;;;;;7.18;4.28;;;;;;;15.76;64.37;102807.88;5094707;28;20024;-80
2023/05/31 01:29:24;;;;;;;7.30;4.20;;;;;;;15.51;65.05;102810.75;5099392;28;20040;-81
2023/05/31 01:31:59;;;;;;;10.02;4.70;;;;;;;15.57;64.92;102813.56;5091060;28;20036;-80
2023/05/31 01:34:28;;;;;;;7.43;3.90;;;;;;;15.89;63.77;102810.78;5093053;28;20089;-79
2023/05/31 01:36:53;;;;;;;7.60;4.30;;;;;;;15.55;64.88;102812.66;5092050;28;20503;-80
2023/05/31 01:39:27;;;;;;;7.20;4.13;;;;;;;15.54;64.78;102812.59;5092884;28;20107;-82
2023/05/31 01:41:56;;;;;;;;;;;;;;;15.69;64.31;102811.22;5093691;28;20032;-79
2023/05/31 01:44:22;;;;;;;6.22;3.97;;;;;;;15.80;63.63;102814.97;5092898;28;19920;-81
2023/05/31 01:46:54;;;;;;;6.90;4.03;;;;;;;15.59;64.48;102810.97;5094391;28;20036;-82
2023/05/31 01:49:26;;;;;;;8.20;4.20;;;;;;;15.54;64.86;102818.75;5096556;28;20028;-80
2023/05/31 01:51:55;;;;;;;7.00;4.03;;;;;;;15.75;63.90;102819.25;5099152;28;20407;-80
2023/05/31 01:54:23;;;;;;;7.75;4.07;;;;;;;15.71;64.04;102811.25;5091721;28;20374;-80
2023/05/31 01:56:52;;;;;;;8.27;4.25;;;;;;;15.42;65.08;102808.81;5090654;28;20067;-80
2023/05/31 01:59:18;;;;;;;7.32;4.18;;;;;;;15.53;64.76;102816.09;5092205;28;20552;-80
2023/05/31 02:01:47;;;;;;;7.82;4.18;;;;;;;15.43;65.20;102810.56;5092169;28;20053;-80
2023/05/31 02:04:12;;;;;;;6.63;4.10;;;;;;;15.38;65.02;102817.44;5089676;28;20039;-81
2023/05/31 02:06:41;;;;;;;8.98;4.40;;;;;;;15.52;64.51;102817.81;5091272;28;20574;-80
2023/05/31 02:09:12;;;;;;;8.32;4.15;;;;;;;15.24;65.57;102808.34;5091768;28;20101;-80
2023/05/31 02:11:41;;;;;;;8.18;4.07;;;;;;;15.56;64.34;102806.50;5093827;28;20031;-81
2023/05/31 02:14:06;;;;;;;7.30;3.95;;;;;;;15.39;64.77;102806.09;5095581;28;20064;-81
2023/05/31 02:16:31;;;;;;;8.43;4.00;;;;;;;15.62;64.06;102813.66;5095437;28;20140;-80
2023/05/31 02:18:58;;;;;;;7.80;4.10;;;;;;;15.39;64.87;102807.81;5095430;28;20056;-80
2023/05/31 02:21:35;;;;;;;9.02;4.25;;;;;;;15.25;65.29;102809.22;5096119;28;20044;-81
2023/05/31 02:24:04;;;;;;;7.53;3.97;;;;;;;15.33;65.15;102807.69;5095843;28;20115;-80
2023/05/31 02:26:29;;;;;;;9.45;3.97;;;;;;;15.32;64.62;102808.53;5097049;28;20036;-80
2023/05/31 02:28:55;;;;;;;5.78;3.70;;;;;;;15.39;64.61;102813.97;5105887;28;20061;-80
2023/05/31 02:31:21;;;;;;;6.78;3.95;;;;;;;15.39;64.12;102819.22;5117568;28;20061;-80
2023/05/31 02:33:49;;;;;;;6.60;3.97;;;;;;;15.42;64.20;102811.44;5116446;28;20103;-80
2023/05/31 02:36:14;;;;;;;5.88;3.50;;;;;;;15.57;63.64;102807.41;5096590;28;20107;-79
2023/05/31 02:38:40;;;;;;;7.97;4.35;;;;;;;15.34;64.34;102797.22;5096392;28;20055;-79
2023/05/31 02:41:11;;;;;;;7.70;4.10;;;;;;;15.34;64.14;102801.56;5096297;28;20146;-80
2023/05/31 02:43:36;;;;;;;7.72;4.10;;;;;;;15.19;64.74;102803.81;5096716;28;20032;-80
2023/05/31 02:46:05;;;;;;;7.78;4.00;;;;;;;15.29;64.57;102797.94;5096790;28;20057;-80
2023/05/31 02:48:45;;;;;;;9.57;3.80;;;;;;;15.25;64.49;102790.81;5095209;28;20091;-81
2023/05/31 02:51:10;;;;;;;6.55;3.72;;;;;;;15.36;63.55;102797.25;5093978;28;20096;-82
2023/05/31 02:53:36;;;;;;;6.60;3.80;;;;;;;15.33;63.56;102798.06;5094976;28;20115;-80
2023/05/31 02:56:08;;;;;;;8.43;4.15;;;;;;;15.14;64.62;102793.19;5092090;28;20501;-81
2023/05/31 02:58:36;;;;;;;7.22;3.90;;;;;;;15.09;64.95;102789.56;5094118;28;20048;-81
2023/05/31 03:01:02;;;;;;;6.40;3.90;;;;;;;15.00;65.15;102798.09;5093898;28;20040;-79
2023/05/31 03:03:27;;;;;;;8.32;4.20;;;;;;;15.05;65.28;102794.72;5094854;28;20093;-80
2023/05/31 03:05:56;;;;;;;10.77;3.88;;;;;;;15.06;64.89;102791.25;5095166;28;20036;-80
2023/05/31 03:08:24;;;;;;;8.07;3.97;;;;;;;15.05;64.70;102790.34;5094661;28;20024;-81
2023/05/31 03:10:49;;;;;;;6.35;4.07;;;;;;;15.00;64.69;102791.97;5095769;28;20032;-81
2023/05/31 03:13:20;;;;;;;8.88;4.15;;;;;;;14.69;65.86;102798.16;5093074;28;20142;-80
2023/05/31 03:15:46;;;;;;;7.65;4.07;;;;;;;15.10;64.79;102795.72;5093540;28;20028;-82
2023/05/31 03:18:14;;;;;;;6.20;3.83;;;;;;;15.00;64.69;102789.34;5091765;28;20039;-81
2023/05/31 03:20:40;;;;;;;6.25;3.88;;;;;;;15.09;64.27;102797.44;5093711;28;20492;-80
2023/05/31 03:23:06;;;;;;;7.55;4.30;;;;;;;15.14;64.00;102794.91;5093300;28;20032;-79
2023/05/31 03:25:32;;;;;;;6.57;4.10;;;;;;;15.11;63.92;102785.25;5093760;28;20642;-79
2023/05/31 03:28:02;;;;;;;7.35;3.85;;;;;;;15.02;64.25;102793.78;5092145;28;20089;-81
2023/05/31 03:30:27;;;;;;;7.93;4.40;;;;;;;14.91;64.75;102789.09;5093827;28;20097;-80
2023/05/31 03:32:53;;;;;;;7.95;4.30;;;;;;;14.93;64.87;102792.66;5094253;28;20043;-80
2023/05/31 03:35:18;;;;;;;8.05;4.15;;;;;;;14.82;65.22;102788.88;5094488;28;20519;-80
2023/05/31 03:37:43;;;;;;;7.78;4.20;;;;;;;14.99;64.95;102782.31;5094279;28;20038;-80
2023/05/31 03:40:11;;;;;;;6.50;4.00;;;;;;;15.03;64.43;102785.03;5094128;28;20092;-82
2023/05/31 03:42:40;;;;;;;7.53;4.10;;;;;;;15.10;64.21;102782.56;5098224;28;20067;-81
2023/05/31 03:45:06;;;;;;;7.15;3.85;;;;;;;14.78;64.87;102790.50;5098384;28;20100;-82
2023/05/31 03:47:31;;;;;;;7.40;4.10;;;;;;;14.49;66.63;102794.09;5098059;28;20036;-80
2023/05/31 03:50:06;;;;;;;8.65;4.40;;;;;;;14.67;66.51;102802.47;5103022;28;20085;-79
2023/05/31 03:52:37;;;;;;;7.50;4.00;;;;;;;14.79;66.03;102801.91;5096729;28;20038;-79
2023/05/31 03:55:03;;;;;;;8.07;4.10;;;;;;;14.92;65.48;102804.91;5092982;28;20036;-78
2023/05/31 03:57:28;;;;;;;9.80;4.32;;;;;;;14.71;66.50;102804.31;5093405;28;20127;-80
2023/05/31 03:59:59;;;;;;;7.38;4.10;;;;;;;15.07;65.46;102795.63;5094950;28;20036;-82
2023/05/31 04:02:25;;;;;;;7.85;4.22;;;;;;;14.61;67.44;102797.94;5092645;28;20042;-81
2023/05/31 04:04:51;;;;;;;7.95;4.22;;;;;;;14.64;67.07;102799.75;5094212;28;20107;-80
2023/05/31 04:07:19;;;;;;;9.82;4.43;;;;;;;14.53;67.34;102807.31;5093979;28;20058;-82
2023/05/31 04:09:44;;;;;;;7.00;3.83;;;;;;;14.83;66.28;102803.75;5093809;28;20028;-81
2023/05/31 04:12:10;;;;;;;8.57;4.13;;;;;;;14.93;66.21;102803.16;5093628;28;20032;-82
2023/05/31 04:14:41;;;;;;;8.90;4.38;;;;;;;15.16;65.02;102799.38;5093310;28;20044;-80
2023/05/31 04:17:10;;;;;;;7.97;3.92;;;;;;;15.27;64.66;102803.16;5091891;28;20032;-80
2023/05/31 04:19:35;;;;;;;8.68;4.28;;;;;;;15.07;65.21;102803.50;5092056;28;20055;-80
2023/05/31 04:22:01;;;;;;;8.23;4.50;;;;;;;15.36;64.64;102803.41;5092023;28;20024;-81
2023/05/31 04:24:38;;;;;;;6.95;4.30;;;;;;;15.29;64.79;102808.47;5094898;28;20036;-79
2023/05/31 04:27:06;;;;;;;7.65;4.25;;;;;;;15.42;64.72;102807.91;5101204;28;20046;-79
2023/05/31 04:29:35;;;;;;;7.90;4.20;;;;;;;15.34;65.20;102807.72;5107897;28;20035;-79
2023/05/31 04:32:00;;;;;;;7.60;4.20;;;;;;;15.61;64.49;102812.78;5108076;28;20046;-79
2023/05/31 04:34:26;;;;;;;8.77;4.63;;;;;;;15.64;64.57;102817.22;5102397;28;20119;-79
2023/05/31 04:37:04;;;;;;;8.75;4.63;;;;;;;15.56;65.06;102814.41;5095742;28;20032;-79
2023/05/31 04:39:31;;;;;;;8.35;4.93;;;;;;;15.40;65.56;102799.97;5095778;28;20036;-78
2023/05/31 04:41:56;;;;;;;8.95;4.70;;;;;;;15.57;65.53;102808.28;5092933;28;20062;-79
2023/05/31 04:44:24;;;;;;;8.70;4.80;;;;;;;15.60;65.63;102812.75;5094843;28;20040;-82
2023/05/31 04:46:50;;;;;;;8.70;5.15;;;;;;;15.81;65.09;102805.34;5097623;28;20043;-82
2023/05/31 04:49:16;;;;;;;8.48;4.57;;;;;;;15.94;64.81;102811.75;5105056;28;20028;-82
2023/05/31 04:51:45;;;;;;;9.57;5.05;;;;;;;15.85;65.26;102804.56;5101311;28;20028;-82
2023/05/31 04:54:13;;;;;;;8.75;5.05;;;;;;;15.94;65.19;102806.50;5093384;28;20044;-81
2023/05/31 04:56:44;;;;;;;7.47;4.68;;;;;;;16.00;65.01;102807.53;5095075;28;20032;-81
2023/05/31 04:59:24;;;;;;;8.45;4.80;;;;;;;16.10;65.27;102806.00;5095735;28;20040;-80
2023/05/31 05:01:50;;;;;;;8.52;4.60;;;;;;;16.39;64.04;102803.97;5092563;28;20040;-79
2023/05/31 05:04:16;;;;;;;9.20;4.80;;;;;;;16.54;64.17;102812.16;5092810;28;20481;-81
2023/05/31 05:06:41;;;;;;;9.73;4.78;;;;;;;15.99;65.81;102804.84;5092577;28;20401;-80
2023/05/31 05:09:07;;;;;;;9.05;4.97;;;;;;;16.33;64.86;102810.00;5091541;28;20040;-79
2023/05/31 05:11:32;;;;;;;8.50;4.90;;;;;;;16.85;64.23;102801.38;5092637;28;20040;-79
2023/05/31 05:13:58;;;;;;;7.88;4.45;;;;;;;18.15;60.08;102804.31;5091433;28;20040;-79
2023/05/31 05:16:26;;;;;;;7.80;4.82;;;;;;;19.21;56.46;102794.88;5093874;28;20394;-81
2023/05/31 05:18:54;;;;;;;7.40;4.78;;;;;;;20.10;53.67;102802.56;5105076;28;20126;-80
2023/05/31 05:21:19;;;;;;;9.30;5.32;;;;;;;20.36;51.23;102800.06;5097216;28;20055;-81
2023/05/31 05:23:45;;;;;;;8.90;5.10;;;;;;;21.54;49.05;102803.75;5092096;28;20404;-80
2023/05/31 05:26:11;;;;;;;9.25;5.03;;;;;;;22.41;45.99;102805.28;5092728;28;20127;-79
2023/05/31 05:28:36;;;;;;;9.07;5.07;;;;;;;22.45;45.77;102804.34;5093255;28;20036;-78
2023/05/31 05:31:03;;;;;;;8.82;5.10;;;;;;;23.08;42.73;102803.97;5092781;28;20039;-82
2023/05/31 05:33:33;;;;;;;12.38;5.70;;;;;;;22.30;46.83;102812.41;5092899;28;20040;-81
2023/05/31 05:35:58;;;;;;;8.13;5.18;;;;;;;23.49;43.30;102808.97;5091777;28;20036;-79
2023/05/31 05:38:23;;;;;;;8.00;5.05;;;;;;;23.80;42.39;102813.09;5093133;28;20059;-80
2023/05/31 05:40:55;;;;;;;7.95;4.95;;;;;;;24.32;41.18;102809.84;5092710;28;20447;-80
2023/05/31 05:43:22;;;;;;;7.22;5.10;;;;;;;23.06;43.63;102801.31;5092990;28;20056;-81
2023/05/31 05:45:56;;;;;;;11.05;5.75;;;;;;;23.86;42.01;102811.25;5092176;28;20047;-81
2023/05/31 05:48:39;;;;;;;8.90;5.95;;;;;;;23.41;42.90;102804.59;5094631;28;20040;-80
2023/05/31 05:51:05;;;;;;;10.77;6.00;;;;;;;24.20;40.93;102809.13;5094419;28;20036;-80
2023/05/31 05:53:33;;;;;;;10.98;5.90;;;;;;;24.83;39.84;102809.09;5096229;28;20086;-80
2023/05/31 05:55:59;;;;;;;12.75;5.78;;;;;;;24.91;38.95;102804.56;5091494;28;20040;-81
2023/05/31 05:58:27;;;;;;;8.95;5.32;;;;;;;25.09;39.21;102810.50;5095254;28;20510;-80
2023/05/31 06:00:55;;;;;;;11.93;6.20;;;;;;;24.38;40.33;102805.31;5093239;28;20040;-81
2023/05/31 06:03:23;;;;;;;9.00;5.78;;;;;;;25.02;39.18;102812.41;5090119;28;20412;-81
2023/05/31 06:05:57;;;;;;;10.73;6.20;;;;;;;24.40;40.43;102808.84;5090607;28;20481;-81
2023/05/31 06:08:35;;;;;;;10.05;6.18;;;;;;;24.87;39.52;102808.16;5089993;28;20069;-82
2023/05/31 06:11:00;;;;;;;11.57;6.03;;;;;;;25.35;38.83;102814.53;5091477;28;20119;-81
2023/05/31 06:13:29;;;;;;;9.50;6.55;;;;;;;25.58;38.17;102807.91;5092945;28;20081;-81
2023/05/31 06:15:57;;;;;;;8.82;5.97;;;;;;;26.36;36.85;102807.25;5094373;28;20036;-82
2023/05/31 06:18:25;;;;;;;11.05;6.60;;;;;;;25.90;36.87;102802.84;5093266;28;20185;-80
2023/05/31 06:20:58;;;;;;;12.27;6.78;;;;;;;25.40;38.11;102809.09;5098969;28;20040;-80
2023/05/31 06:23:26;;;;;;;10.48;6.97;;;;;;;25.38;38.01;102808.22;5096772;28;20059;-80
2023/05/31 06:25:52;;;;;;;9.90;6.63;;;;;;;26.04;37.03;102813.25;5094083;28;20036;-82
2023/05/31 06:28:32;;;;;;;10.50;6.70;;;;;;;26.86;35.58;102809.66;5094590;28;20032;-82
2023/05/31 06:31:00;;;;;;;14.95;7.47;;;;;;;25.36;36.78;102816.28;5096486;28;20519;-79
2023/05/31 06:33:26;;;;;;;14.40;7.57;;;;;;;25.11;38.57;102819.38;5097446;28;20064;-79
2023/05/31 06:35:54;;;;;;;12.18;6.90;;;;;;;25.48;37.46;102814.31;5097685;28;20441;-80
2023/05/31 06:38:25;;;;;;;10.75;7.18;;;;;;;26.08;36.56;102818.50;5097213;28;20062;-80
2023/05/31 06:40:52;;;;;;;18.92;7.25;;;;;;;26.47;35.01;102806.09;5095190;28;20078;-82
2023/05/31 06:43:26;;;;;;;11.85;6.90;;;;;;;25.84;36.38;102813.66;5093480;28;20032;-82
2023/05/31 06:45:59;;;;;;;10.77;7.40;;;;;;;26.26;35.23;102803.91;5092240;28;20033;-81
2023/05/31 06:48:24;;;;;;;13.00;7.53;;;;;;;26.49;35.18;102808.72;5094512;28;20028;-81
2023/05/31 06:50:50;;;;;;;13.93;7.40;;;;;;;27.12;33.81;102811.72;5100130;28;20043;-81
2023/05/31 06:53:15;;;;;;;11.70;7.13;;;;;;;27.15;33.79;102805.41;5109636;28;20044;-84
2023/05/31 06:55:41;;;;;;;12.80;6.85;;;;;;;27.35;32.93;102803.97;5108189;28;20035;-80
2023/05/31 06:58:06;;;;;;;12.45;7.55;;;;;;;26.93;33.95;102805.06;5093519;28;20037;-81
2023/05/31 07:00:34;;;;;;;12.77;6.80;;;;;;;27.62;33.01;102797.06;5126089;28;20052;-81
2023/05/31 07:03:00;;;;;;;14.23;7.72;;;;;;;27.18;34.02;102810.69;5118478;27;20035;-81
2023/05/31 07:05:25;;;;;;;14.02;7.05;;;;;;;28.18;32.26;102805.28;5115886;28;20698;-81
2023/05/31 07:07:53;;;;;;;13.70;7.15;;;;;;;28.04;32.33;102805.69;5116335;27;20114;-81
2023/05/31 07:10:19;;;;;;;12.23;6.97;;;;;;;28.83;31.62;102797.94;5115598;28;20102;-79
2023/05/31 07:12:47;;;;;;;13.60;7.10;;;;;;;27.48;34.04;102798.31;5114977;28;20038;-81
2023/05/31 07:15:22;;;;;;;10.63;7.07;;;;;;;27.50;33.37;102801.81;5117527;27;20031;-81
2023/05/31 07:17:47;;;;;;;11.30;7.15;;;;;;;27.98;33.00;102799.63;5102030;28;20045;-81
2023/05/31 07:20:13;;;;;;;12.50;7.20;;;;;;;28.08;32.93;102799.28;5075336;28;20116;-81
2023/05/31 07:22:41;;;;;;;10.82;7.22;;;;;;;27.53;33.82;102797.28;5076018;28;20122;-82
2023/05/31 07:25:07;;;;;;;12.20;7.05;;;;;;;27.65;33.98;102799.63;5074753;28;20045;-81
2023/05/31 07:27:32;;;;;;;12.90;7.13;;;;;;;27.67;33.45;102791.56;5075268;28;20417;-80
2023/05/31 07:29:58;;;;;;;11.73;6.93;;;;;;;27.67;33.05;102789.75;5075534;28;20476;-81
2023/05/31 07:32:23;;;;;;;12.45;7.25;;;;;;;25.83;36.66;102788.72;5075275;28;20056;-83
2023/05/31 07:34:48;;;;;;;11.27;6.97;;;;;;;27.38;34.17;102792.31;5074815;28;20050;-80
2023/05/31 07:37:23;;;;;;;13.23;7.18;;;;;;;27.68;33.83;102780.81;5075267;28;20048;-81
2023/05/31 07:39:58;;;;;;;14.43;7.18;;;;;;;27.31;33.80;102788.94;5075467;28;20037;-81
2023/05/31 07:42:33;;;;;;;10.07;6.15;;;;;;;28.03;33.05;102786.94;5072379;28;20428;-83
2023/05/31 07:44:58;;;;;;;13.30;6.97;;;;;;;27.63;33.76;102787.22;5074515;28;20036;-80
2023/05/31 07:47:24;;;;;;;11.00;6.28;;;;;;;28.50;32.65;102783.72;5075213;28;20512;-82
2023/05/31 07:49:52;;;;;;;12.05;7.15;;;;;;;27.42;34.14;102785.94;5075676;28;20036;-81
2023/05/31 07:52:23;;;;;;;11.55;6.53;;;;;;;28.18;33.48;102779.34;5085839;28;20037;-80
2023/05/31 07:54:52;;;;;;;11.18;6.30;;;;;;;28.95;32.83;102777.84;5086361;28;20375;-79
2023/05/31 07:57:17;;;;;;;13.68;7.10;;;;;;;28.92;31.19;102777.94;5085540;28;20036;-79
2023/05/31 07:59:43;;;;;;;10.52;6.80;;;;;;;27.84;33.79;102784.81;5074534;28;20039;-80
2023/05/31 08:02:08;;;;;;;12.50;6.68;;;;;;;27.98;33.50;102784.41;5072855;28;20044;-82
2023/05/31 08:04:39;;;;;;;11.00;7.05;;;;;;;27.86;33.73;102790.13;5075888;28;20029;-79
2023/05/31 08:07:06;;;;;;;11.18;6.38;;;;;;;28.68;32.47;102779.59;5080613;28;20036;-82
2023/05/31 08:09:41;;;;;;;11.70;6.65;;;;;;;27.79;34.05;102778.69;5078027;28;20043;-79
2023/05/31 08:12:07;;;;;;;12.18;6.55;;;;;;;28.17;33.77;102768.69;5079979;28;20052;-82
2023/05/31 08:14:32;;;;;;;10.75;6.32;;;;;;;28.81;31.59;102774.72;5078238;28;20194;-81
2023/05/31 08:16:58;;;;;;;10.68;5.72;;;;;;;27.91;33.69;102771.22;5078589;28;20033;-81
2023/05/31 08:19:23;;;;;;;10.45;5.95;;;;;;;29.09;32.16;102782.75;5078859;28;20040;-83
2023/05/31 08:21:58;;;;;;;14.40;6.53;;;;;;;28.04;32.59;102767.25;5078966;28;20102;-82
2023/05/31 08:24:23;;;;;;;10.85;6.50;;;;;;;27.55;33.51;102763.31;5075685;28;20040;-82
2023/05/31 08:26:50;;;;;;;11.02;6.63;;;;;;;27.67;33.49;102768.31;5074863;28;20039;-80
2023/05/31 08:29:15;;;;;;;12.23;6.35;;;;;;;27.69;34.70;102769.13;5075039;28;20472;-80
2023/05/31 08:31:41;;;;;;;11.27;6.30;;;;;;;27.42;33.86;102773.44;5077072;28;20092;-79
2023/05/31 08:34:06;;;;;;;10.90;6.43;;;;;;;26.70;35.13;102765.44;5074476;28;20032;-81
2023/05/31 08:36:32;;;;;;;11.93;6.38;;;;;;;25.35;38.06;102773.59;5077686;28;20102;-82
2023/05/31 08:38:58;;;;;;;17.25;7.72;;;;;;;24.72;39.53;102756.81;5076203;28;20028;-81
2023/05/31 08:41:25;;;;;;;11.65;7.03;;;;;;;24.28;41.35;102761.00;5075152;28;20084;-82
2023/05/31 08:43:50;;;;;;;19.38;7.32;;;;;;;24.64;41.33;102757.81;5073348;28;20028;-80
2023/05/31 08:46:22;;;;;;;12.13;6.53;;;;;;;24.89;41.47;102765.47;5071318;28;20190;-81
2023/05/31 08:49:01;;;;;;;14.88;7.25;;;;;;;24.43;41.63;102759.94;5074262;28;20484;-80
2023/05/31 08:51:27;;;;;;;14.27;7.35;;;;;;;24.50;41.44;102756.28;5077073;28;20047;-80
2023/05/31 08:53:57;;;;;;;13.40;7.25;;;;;;;24.20;42.50;102757.59;5080218;28;20459;-82
2023/05/31 08:56:26;;;;;;;11.38;7.13;;;;;;;23.78;43.17;102764.31;5078545;28;20040;-81
2023/05/31 08:58:55;;;;;;;13.65;6.60;;;;;;;24.10;43.95;102759.44;5074171;28;20482;-81
2023/05/31 09:01:22;;;;;;;14.50;7.63;;;;;;;24.12;42.68;102767.44;5071654;28;20040;-80
2023/05/31 09:03:54;;;;;;;12.70;7.30;;;;;;;23.74;42.72;102760.78;5077399;28;20054;-81
2023/05/31 09:06:19;;;;;;;14.98;7.40;;;;;;;23.70;43.19;102761.72;5077436;28;20036;-80
2023/05/31 09:08:45;;;;;;;13.75;7.82;;;;;;;23.54;43.81;102756.59;5077862;28;20040;-79
2023/05/31 09:11:12;;;;;;;13.02;8.00;;;;;;;23.66;44.53;102759.13;5081933;28;20088;-80
2023/05/31 09:13:37;;;;;;;13.90;7.85;;;;;;;23.66;44.41;102754.69;5087388;28;20482;-79
2023/05/31 09:16:02;;;;;;;13.20;7.55;;;;;;;23.85;43.96;102763.31;5091178;28;20032;-81
2023/05/31 09:18:36;;;;;;;13.43;8.02;;;;;;;23.27;44.89;102757.69;5090462;28;20025;-80
2023/05/31 09:21:12;;;;;;;16.60;8.48;;;;;;;23.65;44.06;102758.22;5089373;28;20036;-79
2023/05/31 09:23:38;;;;;;;13.93;8.63;;;;;;;23.51;43.75;102754.81;5091148;28;20044;-80
2023/05/31 09:26:07;;;;;;;15.63;8.10;;;;;;;23.60;44.24;102751.19;5083247;28;20040;-80
2023/05/31 09:28:36;;;;;;;12.93;8.02;;;;;;;23.55;44.48;102753.00;5074058;28;20044;-79
2023/05/31 09:31:07;;;;;;;18.95;7.97;;;;;;;23.76;44.52;102751.00;5072063;28;20131;-79
2023/05/31 09:33:51;;;;;;;15.18;7.90;;;;;;;23.78;44.56;102743.88;5081870;28;20275;-79
2023/05/31 09:36:43;;;;;;;;;;;;;;;24.24;43.67;102741.53;5091318;28;20036;-80
2023/05/31 09:39:08;;;;;;;13.75;7.45;;;;;;;24.12;44.02;102736.34;5075568;28;19930;-82
2023/05/31 09:41:33;;;;;;;12.85;7.88;;;;;;;23.56;44.14;102741.47;5075963;28;20131;-81
2023/05/31 09:44:00;;;;;;;14.30;7.25;;;;;;;23.76;43.67;102740.34;5080732;28;20531;-80
2023/05/31 09:46:25;;;;;;;15.95;8.07;;;;;;;23.50;44.75;102738.88;5086931;28;20075;-82
2023/05/31 09:49:03;;;;;;;13.10;7.97;;;;;;;23.94;43.87;102735.69;5079694;28;20036;-82
2023/05/31 09:51:32;;;;;;;13.57;8.05;;;;;;;23.59;44.08;102737.00;5085794;28;20044;-83
2023/05/31 09:53:58;;;;;;;14.93;7.50;;;;;;;23.83;44.25;102733.16;5074794;28;20036;-81
2023/05/31 09:56:27;;;;;;;11.32;7.45;;;;;;;23.93;43.76;102725.94;5083662;28;20035;-84
2023/05/31 09:58:57;;;;;;;13.07;7.30;;;;;;;23.84;42.75;102732.28;5094150;28;20092;-82
2023/05/31 10:01:32;;;;;;;14.45;7.43;;;;;;;24.04;42.98;102732.88;5092855;28;20111;-83
2023/05/31 10:04:01;;;;;;;14.90;7.32;;;;;;;24.01;42.66;102718.72;5093544;28;20110;-81
2023/05/31 10:06:27;;;;;;;16.48;8.40;;;;;;;23.62;43.42;102728.06;5093672;28;20036;-81
2023/05/31 10:08:55;;;;;;;13.27;7.93;;;;;;;23.69;43.48;102735.97;5092862;28;20044;-81
2023/05/31 10:11:28;;;;;;;16.08;8.35;;;;;;;23.74;44.21;102731.47;5093163;28;20033;-80
2023/05/31 10:13:59;;;;;;;14.82;7.82;;;;;;;24.06;42.28;102733.75;5093300;28;20029;-79
2023/05/31 10:16:49;;;;;;;13.90;7.65;;;;;;;23.97;43.43;102720.53;5093238;28;20589;-82
2023/05/31 10:19:22;;;;;;;16.60;7.55;;;;;;;24.02;43.01;102721.38;5091309;28;20103;-80
2023/05/31 10:21:49;;;;;;;16.77;7.90;;;;;;;23.97;42.67;102723.19;5094208;28;20032;-83
2023/05/31 10:24:22;;;;;;;13.10;7.80;;;;;;;23.89;42.91;102716.22;5093918;28;20025;-83
2023/05/31 10:27:02;;;;;;;15.18;7.90;;;;;;;23.65;43.22;102718.28;5082266;28;20105;-80
2023/05/31 10:29:53;;;;;;;15.57;7.65;;;;;;;23.92;43.52;102719.72;5071040;28;20032;-78
2023/05/31 10:32:26;;;;;;;14.93;7.90;;;;;;;24.02;42.72;102716.06;5071882;28;20052;-79
2023/05/31 10:34:55;;;;;;;14.98;8.05;;;;;;;24.08;42.46;102713.31;5073720;28;20131;-80
2023/05/31 10:37:21;;;;;;;14.27;8.00;;;;;;;24.11;42.23;102701.69;5073257;28;20128;-79
2023/05/31 10:39:59;;;;;;;12.65;7.43;;;;;;;24.11;42.04;102707.03;5074201;28;20561;-80
2023/05/31 10:42:44;;;;;;;15.52;8.15;;;;;;;24.22;42.98;102703.34;5075605;28;20113;-80
2023/05/31 10:45:33;;;;;;;14.27;7.32;;;;;;;24.54;41.03;102705.53;5072346;28;20043;-80
2023/05/31 10:48:06;;;;;;;13.13;7.47;;;;;;;23.92;41.73;102698.41;5073935;28;20035;-80
2023/05/31 10:50:58;;;;;;;10.77;7.22;;;;;;;24.22;41.87;102697.13;5076518;28;20032;-80
2023/05/31 10:53:40;;;;;;;12.43;7.00;;;;;;;24.32;41.02;102695.22;5093602;28;20083;-80
2023/05/31 10:56:13;;;;;;;13.52;6.95;;;;;;;24.72;41.38;102699.03;5088310;28;20032;-79
2023/05/31 10:58:53;;;;;;;17.02;7.70;;;;;;;24.07;41.70;102690.22;5081971;28;20462;-82
2023/05/31 11:01:21;;;;;;;13.40;7.25;;;;;;;24.70;41.76;102698.19;5075238;28;20455;-82
2023/05/31 11:04:00;;;;;;;14.82;7.75;;;;;;;24.57;41.21;102686.84;5073514;28;20047;-82
2023/05/31 11:06:38;;;;;;;12.35;7.28;;;;;;;24.38;41.14;102681.81;5073423;28;20162;-81
2023/05/31 11:09:11;;;;;;;13.05;7.18;;;;;;;24.74;40.61;102685.66;5072178;28;20043;-80
2023/05/31 11:11:37;;;;;;;14.73;7.07;;;;;;;24.88;40.89;102689.00;5081337;28;20033;-83
2023/05/31 11:14:06;;;;;;;15.35;7.15;;;;;;;24.70;40.47;102690.19;5087003;28;20318;-79
2023/05/31 11:16:43;;;;;;;10.60;6.45;;;;;;;25.18;39.99;102690.25;5082273;28;20064;-79
2023/05/31 11:19:14;;;;;;;14.65;6.72;;;;;;;24.76;40.42;102683.88;5073667;28;20040;-81
2023/05/31 11:21:57;;;;;;;11.85;6.15;;;;;;;24.87;39.32;102682.78;5073534;28;20056;-82
2023/05/31 11:24:29;;;;;;;12.50;7.00;;;;;;;24.65;40.43;102671.56;5072792;28;20047;-81
2023/05/31 11:27:00;;;;;;;13.77;7.05;;;;;;;24.66;41.24;102675.13;5072704;28;20090;-81
2023/05/31 11:29:50;;;;;;;13.45;6.90;;;;;;;25.09;40.47;102666.38;5071821;28;20233;-80
2023/05/31 11:32:34;;;;;;;11.50;6.40;;;;;;;25.06;39.04;102667.34;5072541;28;20670;-80